MSR905 EDDF-EGLL
Flight info
| Callsign | MSR905 |
|---|---|
| Flight time | N/A |
| Altitude | 40000 |
| Route | OBOKA1E OBOKA Z29 TORNU DCT ABNED L980 LOGAN |
| Aircraft | A388/J-SADE2E3FGHIJ3J4J5M1RWXY/LB1D1 |
Departure
| Time | 2026-04-14 11:23 |
|---|---|
| Airport | Frankfurt Main Airport (EDDF) |
Arrival
| Time | N/A |
|---|---|
| Airport | London Heathrow Airport (EGLL) |
| Time | Latitude | Longitude | Altitude | Speed | Heading |
|---|---|---|---|---|---|
| 2026-04-14 11:01 | 50.04404 | 8.56160 | 367 ft | 0 kts | 156° |
| 2026-04-14 11:12 | 50.04405 | 8.56160 | 368 ft | 0 kts | 156° |
| 2026-04-14 11:13 | 50.04407 | 8.56158 | 368 ft | 0 kts | 156° |
| 2026-04-14 11:13 | 50.04411 | 8.56156 | 368 ft | 0 kts | 156° |
| 2026-04-14 11:13 | 50.04414 | 8.56154 | 368 ft | 0 kts | 156° |
| 2026-04-14 11:13 | 50.04416 | 8.56152 | 368 ft | 0 kts | 156° |
| 2026-04-14 11:14 | 50.04419 | 8.56150 | 368 ft | 0 kts | 158° |
| 2026-04-14 11:14 | 50.04422 | 8.56148 | 368 ft | 0 kts | 158° |
| 2026-04-14 11:14 | 50.04423 | 8.56147 | 368 ft | 0 kts | 159° |
| 2026-04-14 11:14 | 50.04425 | 8.56146 | 368 ft | 0 kts | 159° |
| 2026-04-14 11:15 | 50.04427 | 8.56145 | 368 ft | 0 kts | 159° |
| 2026-04-14 11:15 | 50.04429 | 8.56143 | 368 ft | 0 kts | 162° |
| 2026-04-14 11:15 | 50.04431 | 8.56142 | 368 ft | 0 kts | 164° |
| 2026-04-14 11:15 | 50.04438 | 8.56139 | 368 ft | 3 kts | 164° |
| 2026-04-14 11:16 | 50.04460 | 8.56129 | 369 ft | 1 kts | 166° |
| 2026-04-14 11:16 | 50.04472 | 8.56125 | 369 ft | 1 kts | 178° |
| 2026-04-14 11:16 | 50.04476 | 8.56124 | 369 ft | 0 kts | 185° |
| 2026-04-14 11:16 | 50.04436 | 8.56091 | 368 ft | 3 kts | 216° |
| 2026-04-14 11:17 | 50.04431 | 8.56085 | 368 ft | 2 kts | 216° |
| 2026-04-14 11:17 | 50.04406 | 8.56063 | 368 ft | 7 kts | 204° |
| 2026-04-14 11:17 | 50.04341 | 8.56059 | 366 ft | 12 kts | 176° |
| 2026-04-14 11:17 | 50.04303 | 8.56039 | 365 ft | 0 kts | 223° |
| 2026-04-14 11:18 | 50.04296 | 8.56029 | 365 ft | 8 kts | 223° |
| 2026-04-14 11:18 | 50.04230 | 8.55904 | 362 ft | 21 kts | 249° |
| 2026-04-14 11:18 | 50.04187 | 8.55720 | 360 ft | 9 kts | 250° |
| 2026-04-14 11:19 | 50.04177 | 8.55678 | 360 ft | 2 kts | 251° |
| 2026-04-14 11:19 | 50.04133 | 8.55487 | 362 ft | 19 kts | 250° |
| 2026-04-14 11:19 | 50.04092 | 8.55327 | 360 ft | 13 kts | 248° |
| 2026-04-14 11:19 | 50.04046 | 8.55141 | 358 ft | 34 kts | 250° |
| 2026-04-14 11:20 | 50.03918 | 8.54608 | 348 ft | 60 kts | 250° |
| 2026-04-14 11:20 | 50.03761 | 8.54073 | 350 ft | 48 kts | 258° |
| 2026-04-14 11:20 | 50.03701 | 8.53813 | 354 ft | 0 kts | 247° |
| 2026-04-14 11:20 | 50.03678 | 8.53726 | 353 ft | 11 kts | 249° |
| 2026-04-14 11:21 | 50.03648 | 8.53614 | 353 ft | 11 kts | 246° |
| 2026-04-14 11:21 | 50.03562 | 8.53515 | 351 ft | 21 kts | 208° |
| 2026-04-14 11:21 | 50.03409 | 8.53430 | 345 ft | 23 kts | 175° |
| 2026-04-14 11:21 | 50.03285 | 8.53563 | 341 ft | 21 kts | 92° |
| 2026-04-14 11:22 | 50.03319 | 8.53705 | 342 ft | 8 kts | 70° |
| 2026-04-14 11:22 | 50.03324 | 8.53725 | 342 ft | 0 kts | 70° |
| 2026-04-14 11:22 | 50.03332 | 8.53761 | 341 ft | 17 kts | 71° |
| 2026-04-14 11:22 | 50.03453 | 8.54266 | 340 ft | 83 kts | 69° |
| 2026-04-14 11:23 | 50.03739 | 8.55438 | 350 ft | 146 kts | 68° |
| 2026-04-14 11:23 | 50.04139 | 8.57130 | 682 ft | 178 kts | 72° |
| 2026-04-14 11:23 | 50.04580 | 8.58962 | 1303 ft | 193 kts | 66° |
| 2026-04-14 11:23 | 50.05194 | 8.60924 | 1681 ft | 218 kts | 59° |
| 2026-04-14 11:24 | 50.06033 | 8.63006 | 1316 ft | 255 kts | 53° |
| 2026-04-14 11:24 | 50.07236 | 8.65368 | 1569 ft | 302 kts | 47° |
| 2026-04-14 11:24 | 50.08924 | 8.67459 | 2436 ft | 326 kts | 33° |
| 2026-04-14 11:24 | 50.10735 | 8.69241 | 3103 ft | 293 kts | 30° |
| 2026-04-14 11:25 | 50.12448 | 8.70702 | 3289 ft | 268 kts | 24° |
| 2026-04-14 11:25 | 50.14108 | 8.71851 | 3166 ft | 255 kts | 19° |
| 2026-04-14 11:25 | 50.15832 | 8.72760 | 2849 ft | 289 kts | 13° |
| 2026-04-14 11:25 | 50.17948 | 8.73531 | 3147 ft | 341 kts | 10° |
| 2026-04-14 11:26 | 50.20503 | 8.74171 | 3087 ft | 404 kts | 6° |
| 2026-04-14 11:26 | 50.23403 | 8.74559 | 4615 ft | 418 kts | 0° |
| 2026-04-14 11:26 | 50.26147 | 8.74644 | 6923 ft | 418 kts | 359° |
| 2026-04-14 11:26 | 50.29289 | 8.74562 | 6212 ft | 491 kts | 355° |
| 2026-04-14 11:27 | 50.31468 | 8.74274 | 8302 ft | 475 kts | 351° |
| 2026-04-14 11:27 | 50.35020 | 8.73460 | 13784 ft | 366 kts | 347° |
| 2026-04-14 11:27 | 50.37395 | 8.72777 | 13712 ft | 345 kts | 339° |
| 2026-04-14 11:27 | 50.39366 | 8.71036 | 13495 ft | 318 kts | 310° |
| 2026-04-14 11:28 | 50.40402 | 8.68281 | 13632 ft | 285 kts | 284° |
| 2026-04-14 11:28 | 50.40773 | 8.65351 | 13598 ft | 265 kts | 277° |
| 2026-04-14 11:28 | 50.41034 | 8.62561 | 13579 ft | 247 kts | 277° |
| 2026-04-14 11:28 | 50.41279 | 8.59954 | 13589 ft | 245 kts | 277° |
| 2026-04-14 11:29 | 50.41510 | 8.57109 | 13697 ft | 285 kts | 271° |
| 2026-04-14 11:29 | 50.41331 | 8.53826 | 13677 ft | 314 kts | 261° |
| 2026-04-14 11:29 | 50.40935 | 8.50406 | 13626 ft | 320 kts | 260° |
| 2026-04-14 11:29 | 50.40532 | 8.46978 | 13615 ft | 321 kts | 260° |
| 2026-04-14 11:30 | 50.40126 | 8.43534 | 13614 ft | 321 kts | 260° |
| 2026-04-14 11:30 | 50.39718 | 8.40080 | 13614 ft | 321 kts | 260° |
| 2026-04-14 11:30 | 50.39307 | 8.36608 | 13619 ft | 323 kts | 260° |
| 2026-04-14 11:30 | 50.38905 | 8.33224 | 13410 ft | 312 kts | 259° |
| 2026-04-14 11:31 | 50.38512 | 8.29923 | 13140 ft | 316 kts | 259° |
| 2026-04-14 11:31 | 50.38104 | 8.26521 | 13203 ft | 319 kts | 258° |
| 2026-04-14 11:31 | 50.37349 | 8.23250 | 13175 ft | 320 kts | 243° |
| 2026-04-14 11:31 | 50.36227 | 8.20249 | 13191 ft | 321 kts | 240° |
| 2026-04-14 11:32 | 50.35075 | 8.17250 | 13175 ft | 321 kts | 240° |
| 2026-04-14 11:32 | 50.34346 | 8.15202 | 13171 ft | 320 kts | 245° |
| 2026-04-14 11:32 | 50.33225 | 8.10938 | 13180 ft | 320 kts | 249° |
| 2026-04-14 11:32 | 50.32405 | 8.07653 | 13174 ft | 320 kts | 249° |
| 2026-04-14 11:33 | 50.31597 | 8.04418 | 13174 ft | 320 kts | 249° |
| 2026-04-14 11:33 | 50.30793 | 8.01201 | 13172 ft | 320 kts | 249° |
| 2026-04-14 11:33 | 50.29984 | 7.97965 | 13171 ft | 320 kts | 249° |
| 2026-04-14 11:34 | 50.28935 | 7.91279 | 13154 ft | 319 kts | 274° |
| 2026-04-14 11:34 | 50.29561 | 7.87917 | 13199 ft | 322 kts | 292° |
| 2026-04-14 11:34 | 50.30554 | 7.84823 | 13572 ft | 319 kts | 295° |
| 2026-04-14 11:34 | 50.31869 | 7.81991 | 13992 ft | 325 kts | 309° |
| 2026-04-14 11:35 | 50.33219 | 7.79001 | 14485 ft | 352 kts | 294° |
| 2026-04-14 11:35 | 50.34270 | 7.75388 | 15004 ft | 386 kts | 291° |
| 2026-04-14 11:35 | 50.35010 | 7.72721 | 15340 ft | 412 kts | 291° |
| 2026-04-14 11:35 | 50.36592 | 7.67003 | 15962 ft | 439 kts | 292° |
| 2026-04-14 11:36 | 50.38221 | 7.62985 | 16345 ft | 449 kts | 309° |
| 2026-04-14 11:36 | 50.40725 | 7.59961 | 16756 ft | 460 kts | 326° |
| 2026-04-14 11:36 | 50.43649 | 7.57811 | 17193 ft | 469 kts | 336° |
| 2026-04-14 11:36 | 50.46826 | 7.56520 | 17610 ft | 478 kts | 346° |
| 2026-04-14 11:37 | 50.50128 | 7.56124 | 18020 ft | 487 kts | 356° |
| 2026-04-14 11:37 | 50.53536 | 7.56651 | 18436 ft | 496 kts | 6° |
| 2026-04-14 11:37 | 50.56868 | 7.58098 | 18846 ft | 505 kts | 15° |
| 2026-04-14 11:37 | 50.60194 | 7.59749 | 19245 ft | 501 kts | 6° |
| 2026-04-14 11:38 | 50.63620 | 7.59868 | 19637 ft | 489 kts | 347° |
| 2026-04-14 11:38 | 50.66794 | 7.58250 | 20041 ft | 476 kts | 328° |
| 2026-04-14 11:38 | 50.69359 | 7.55149 | 20440 ft | 466 kts | 309° |
| 2026-04-14 11:38 | 50.71063 | 7.50946 | 20837 ft | 458 kts | 291° |
| 2026-04-14 11:39 | 50.71937 | 7.46133 | 21273 ft | 457 kts | 283° |
| 2026-04-14 11:39 | 50.72832 | 7.41353 | 21698 ft | 459 kts | 285° |
| 2026-04-14 11:39 | 50.73924 | 7.36570 | 22101 ft | 464 kts | 292° |
| 2026-04-14 11:39 | 50.75346 | 7.32269 | 22517 ft | 466 kts | 295° |
| 2026-04-14 11:40 | 50.76738 | 7.28201 | 22911 ft | 468 kts | 295° |
| 2026-04-14 11:40 | 50.77850 | 7.24949 | 23216 ft | 461 kts | 295° |
| 2026-04-14 11:40 | 50.79407 | 7.20397 | 23647 ft | 459 kts | 295° |
| 2026-04-14 11:40 | 50.80906 | 7.16008 | 24070 ft | 459 kts | 295° |
| 2026-04-14 11:41 | 50.82380 | 7.11680 | 24488 ft | 461 kts | 295° |
| 2026-04-14 11:41 | 50.83784 | 7.07549 | 24885 ft | 462 kts | 295° |
| 2026-04-14 11:41 | 50.85158 | 7.03501 | 25272 ft | 464 kts | 295° |
| 2026-04-14 11:41 | 50.86734 | 6.98845 | 25714 ft | 466 kts | 295° |
| 2026-04-14 11:42 | 50.87386 | 6.96913 | 25896 ft | 467 kts | 295° |
| 2026-04-14 11:42 | 50.88902 | 6.92422 | 26320 ft | 469 kts | 295° |
| 2026-04-14 11:42 | 50.90418 | 6.87917 | 26742 ft | 469 kts | 294° |
| 2026-04-14 11:42 | 50.91917 | 6.83458 | 27158 ft | 470 kts | 294° |
| 2026-04-14 11:43 | 50.93444 | 6.78904 | 27582 ft | 470 kts | 294° |
| 2026-04-14 11:43 | 50.94965 | 6.74361 | 28002 ft | 470 kts | 294° |
| 2026-04-14 11:43 | 50.96482 | 6.69823 | 28420 ft | 469 kts | 293° |
| 2026-04-14 11:43 | 50.98004 | 6.65266 | 28839 ft | 468 kts | 293° |
| 2026-04-14 11:44 | 50.99515 | 6.60734 | 29255 ft | 467 kts | 293° |
| 2026-04-14 11:44 | 51.01024 | 6.56201 | 29672 ft | 466 kts | 292° |
| 2026-04-14 11:44 | 51.02537 | 6.51655 | 30089 ft | 464 kts | 292° |
| 2026-04-14 11:44 | 51.04013 | 6.47212 | 30496 ft | 463 kts | 292° |
| 2026-04-14 11:45 | 51.05523 | 6.42665 | 30912 ft | 461 kts | 292° |
| 2026-04-14 11:45 | 51.06998 | 6.38221 | 31316 ft | 459 kts | 292° |
| 2026-04-14 11:45 | 51.08399 | 6.33997 | 31704 ft | 456 kts | 291° |
| 2026-04-14 11:45 | 51.09620 | 6.30317 | 32064 ft | 453 kts | 291° |
| 2026-04-14 11:46 | 51.11983 | 6.23193 | 32752 ft | 448 kts | 291° |
| 2026-04-14 11:46 | 51.14909 | 6.12786 | 33731 ft | 433 kts | 283° |
| 2026-04-14 11:47 | 51.15549 | 6.08203 | 34134 ft | 425 kts | 277° |
| 2026-04-14 11:47 | 51.16140 | 6.03606 | 34564 ft | 425 kts | 278° |
| 2026-04-14 11:47 | 51.16794 | 5.98983 | 34986 ft | 423 kts | 279° |
| 2026-04-14 11:47 | 51.17432 | 5.94466 | 35398 ft | 422 kts | 279° |
| 2026-04-14 11:48 | 51.18068 | 5.89912 | 35711 ft | 423 kts | 279° |
| 2026-04-14 11:48 | 51.19335 | 5.80668 | 35704 ft | 427 kts | 278° |
| 2026-04-14 11:49 | 51.21524 | 5.71876 | 35724 ft | 438 kts | 293° |
| 2026-04-14 11:49 | 51.24856 | 5.63654 | 35694 ft | 448 kts | 301° |
| 2026-04-14 11:49 | 51.26569 | 5.59669 | 35696 ft | 437 kts | 292° |
| 2026-04-14 11:50 | 51.27931 | 5.55340 | 35713 ft | 436 kts | 290° |
| 2026-04-14 11:50 | 51.31561 | 5.47475 | 35690 ft | 465 kts | 314° |
| 2026-04-14 11:51 | 51.36068 | 5.40806 | 35686 ft | 435 kts | 292° |
| 2026-04-14 11:51 | 51.37093 | 5.36314 | 35711 ft | 423 kts | 278° |
| 2026-04-14 11:51 | 51.37310 | 5.27143 | 35721 ft | 423 kts | 268° |
| 2026-04-14 11:52 | 51.38250 | 5.17961 | 35731 ft | 429 kts | 282° |
| 2026-04-14 11:52 | 51.40021 | 5.08757 | 35712 ft | 431 kts | 282° |
| 2026-04-14 11:53 | 51.41772 | 4.99640 | 35710 ft | 430 kts | 282° |
| 2026-04-14 11:53 | 51.43558 | 4.90482 | 35707 ft | 428 kts | 282° |
| 2026-04-14 11:54 | 51.43802 | 4.89249 | 35707 ft | 428 kts | 282° |